Time;durP1;ratioP1;P1;durP2;ratioP2;P2;SDS_P1;SDS_P2;PMS_P1;PMS_P2;Temp;Humidity;BMP_temperature;BMP_pressure;BME280_temperature;BME280_humidity;BME280_pressure;Samples;Min_cycle;Max_cycle;Signal;HPM_P1;HPM_P2
2021/10/23 00:00:35;;;;;;;5.35;3.25;;;10.70;99.90;;;;;;4156139;28;20030;-72
2021/10/23 00:02:36;;;;;;;7.50;3.03;;;10.70;99.90;;;;;;4156259;28;20025;-72
2021/10/23 00:04:36;;;;;;;6.18;3.35;;;10.70;99.90;;;;;;4155467;28;20390;-72
2021/10/23 00:06:37;;;;;;;5.25;3.15;;;10.60;99.90;;;;;;4157306;28;20049;-72
2021/10/23 00:08:37;;;;;;;6.80;3.78;;;10.60;99.90;;;;;;4156340;28;20571;-73
2021/10/23 00:10:38;;;;;;;9.27;3.47;;;10.60;99.90;;;;;;4156656;28;20365;-72
2021/10/23 00:12:39;;;;;;;6.30;3.13;;;10.60;99.90;;;;;;4156961;28;20045;-72
2021/10/23 00:14:39;;;;;;;5.88;3.28;;;10.60;99.90;;;;;;4155592;28;20041;-73
2021/10/23 00:16:40;;;;;;;6.82;3.10;;;10.50;99.90;;;;;;4156372;28;20115;-72
2021/10/23 00:18:41;;;;;;;6.55;2.92;;;10.50;99.90;;;;;;4155095;28;20041;-72
2021/10/23 00:20:41;;;;;;;6.95;3.28;;;10.50;99.90;;;;;;4154525;28;20136;-72
2021/10/23 00:22:42;;;;;;;7.45;3.28;;;10.50;99.90;;;;;;4156693;28;20440;-72
2021/10/23 00:24:43;;;;;;;8.00;3.53;;;10.50;99.90;;;;;;4156966;28;20541;-72
2021/10/23 00:26:43;;;;;;;5.47;3.55;;;10.50;99.90;;;;;;4156786;28;20037;-72
2021/10/23 00:28:44;;;;;;;6.47;3.53;;;10.50;99.90;;;;;;4157124;28;20649;-72
2021/10/23 00:30:44;;;;;;;5.03;3.17;;;10.50;99.90;;;;;;4154414;28;20033;-72
2021/10/23 00:32:45;;;;;;;6.18;3.33;;;10.50;99.90;;;;;;4154312;28;20064;-72
2021/10/23 00:34:45;;;;;;;7.53;3.47;;;10.50;99.90;;;;;;4156040;28;20124;-72
2021/10/23 00:36:46;;;;;;;5.30;2.95;;;10.50;99.90;;;;;;4156773;28;20400;-73
2021/10/23 00:38:47;;;;;;;5.97;3.22;;;10.50;99.90;;;;;;4154844;28;20041;-72
2021/10/23 00:40:48;;;;;;;7.07;3.40;;;10.50;99.90;;;;;;4153929;28;20029;-73
2021/10/23 00:42:48;;;;;;;7.80;4.13;;;10.50;99.90;;;;;;4154089;28;20032;-73
2021/10/23 00:44:49;;;;;;;4.95;3.42;;;10.50;99.90;;;;;;4157058;28;20095;-72
2021/10/23 00:46:50;;;;;;;5.03;3.00;;;10.50;99.90;;;;;;4156103;28;20033;-72
2021/10/23 00:48:50;;;;;;;6.93;3.67;;;10.50;99.90;;;;;;4154235;28;20042;-73
2021/10/23 00:50:51;;;;;;;5.43;3.40;;;10.50;99.90;;;;;;4155046;28;20034;-72
2021/10/23 00:52:51;;;;;;;4.95;3.50;;;10.40;99.90;;;;;;4156477;28;20086;-72
2021/10/23 00:54:53;;;;;;;9.88;4.35;;;10.40;99.90;;;;;;4155996;28;20033;-72
2021/10/23 00:56:55;;;;;;;8.30;3.58;;;10.50;99.90;;;;;;4156258;28;20724;-72
2021/10/23 00:58:55;;;;;;;5.97;3.30;;;10.40;99.90;;;;;;4154986;28;20040;-72
2021/10/23 01:00:56;;;;;;;6.25;3.63;;;10.40;99.90;;;;;;4152860;28;20124;-72
2021/10/23 01:02:57;;;;;;;6.18;3.75;;;10.40;99.90;;;;;;4155575;28;20188;-72
2021/10/23 01:04:57;;;;;;;5.60;3.70;;;10.40;99.90;;;;;;4156115;28;20045;-72
2021/10/23 01:06:58;;;;;;;9.10;4.10;;;10.40;99.90;;;;;;4152340;28;20094;-72
2021/10/23 01:08:59;;;;;;;5.28;3.63;;;10.40;99.90;;;;;;4154071;28;20034;-72
2021/10/23 01:11:00;;;;;;;9.13;4.07;;;10.30;99.90;;;;;;4153921;28;20679;-73
2021/10/23 01:13:00;;;;;;;5.20;3.33;;;10.30;99.90;;;;;;4156683;28;20492;-73
2021/10/23 01:15:22;;;;;;;5.55;3.42;;;10.30;99.90;;;;;;4154502;28;20065;-72
2021/10/23 01:17:23;;;;;;;7.65;4.00;;;10.30;99.90;;;;;;4137486;28;20399;-73
2021/10/23 01:19:24;;;;;;;7.47;3.90;;;10.30;99.90;;;;;;4152082;28;20040;-73
2021/10/23 01:21:25;;;;;;;5.18;3.40;;;10.30;99.90;;;;;;4151486;28;20393;-72
2021/10/23 01:23:25;;;;;;;5.45;3.40;;;10.30;99.90;;;;;;4153163;28;20029;-73
2021/10/23 01:25:29;;;;;;;5.63;3.67;;;10.40;99.90;;;;;;4153699;28;20171;-72
2021/10/23 01:27:29;;;;;;;6.95;3.55;;;10.40;99.90;;;;;;4153603;28;20057;-72
2021/10/23 01:29:30;;;;;;;8.73;4.68;;;10.40;99.90;;;;;;4153871;28;20075;-73
2021/10/23 01:31:31;;;;;;;6.80;3.90;;;10.30;99.90;;;;;;4154046;28;20022;-72
2021/10/23 01:33:33;;;;;;;8.23;4.00;;;10.40;99.90;;;;;;4152876;28;20049;-72
2021/10/23 01:35:33;;;;;;;8.70;4.40;;;10.40;99.90;;;;;;4152682;28;20033;-73
2021/10/23 01:37:41;;;;;;;6.03;3.92;;;10.40;99.90;;;;;;4154135;28;20273;-72
2021/10/23 01:39:42;;;;;;;6.55;4.32;;;10.40;99.90;;;;;;4154288;28;20780;-72
2021/10/23 01:41:42;;;;;;;8.30;4.60;;;10.40;99.90;;;;;;4154451;28;20037;-73
2021/10/23 01:43:43;;;;;;;8.95;5.03;;;10.40;99.90;;;;;;4154494;28;20672;-72
2021/10/23 01:45:44;;;;;;;6.53;4.15;;;10.40;99.90;;;;;;4153643;28;20825;-72
2021/10/23 01:47:45;;;;;;;6.07;3.90;;;10.40;99.90;;;;;;4155250;28;20086;-73
2021/10/23 01:49:45;;;;;;;5.32;3.88;;;10.40;99.90;;;;;;4153829;28;20034;-72
2021/10/23 01:51:47;;;;;;;6.78;4.28;;;10.40;99.90;;;;;;4152438;28;20030;-72
2021/10/23 01:53:47;;;;;;;9.07;4.45;;;10.40;99.90;;;;;;4153084;28;20199;-72
2021/10/23 01:55:48;;;;;;;7.35;4.00;;;10.40;99.90;;;;;;4151856;28;20084;-73
2021/10/23 01:57:49;;;;;;;8.85;4.85;;;10.30;99.90;;;;;;4152502;28;20036;-72
2021/10/23 01:59:51;;;;;;;9.95;4.85;;;10.30;99.90;;;;;;4151098;28;20033;-72
2021/10/23 02:01:51;;;;;;;8.50;4.80;;;10.30;99.90;;;;;;4152881;28;20045;-72
2021/10/23 02:03:52;;;;;;;8.27;4.75;;;10.30;99.90;;;;;;4153387;28;20041;-73
2021/10/23 02:05:52;;;;;;;6.28;4.57;;;10.20;99.90;;;;;;4154376;28;20050;-72
2021/10/23 02:07:53;;;;;;;8.25;5.03;;;10.20;99.90;;;;;;4152964;28;20540;-72
2021/10/23 02:09:54;;;;;;;10.25;5.28;;;10.20;99.90;;;;;;4156555;28;20128;-72
2021/10/23 02:11:54;;;;;;;9.23;4.60;;;10.10;99.90;;;;;;4152418;28;20033;-73
2021/10/23 02:13:55;;;;;;;9.82;5.43;;;10.10;99.90;;;;;;4155137;28;20648;-72
2021/10/23 02:15:55;;;;;;;10.77;5.13;;;10.10;99.90;;;;;;4154917;28;20563;-72
2021/10/23 02:17:56;;;;;;;6.88;5.30;;;10.10;99.90;;;;;;4153717;28;20816;-72
2021/10/23 02:19:56;;;;;;;11.63;6.35;;;10.10;99.90;;;;;;4154661;28;20037;-72
2021/10/23 02:21:57;;;;;;;9.20;5.18;;;10.10;99.90;;;;;;4153391;28;21526;-72
2021/10/23 02:23:57;;;;;;;9.15;5.45;;;10.10;99.90;;;;;;4153373;28;20033;-72
2021/10/23 02:25:59;;;;;;;9.05;5.25;;;10.10;99.90;;;;;;4153668;28;20053;-72
2021/10/23 02:27:59;;;;;;;9.27;5.20;;;10.10;99.90;;;;;;4152828;28;20675;-73
2021/10/23 02:30:00;;;;;;;8.98;5.63;;;10.10;99.90;;;;;;4151849;28;20049;-72
2021/10/23 02:32:00;;;;;;;8.38;5.72;;;10.10;99.90;;;;;;4153383;28;20079;-72
2021/10/23 02:34:01;;;;;;;8.82;6.15;;;10.10;99.90;;;;;;4154606;28;20033;-72
2021/10/23 02:36:01;;;;;;;10.63;6.47;;;10.10;99.90;;;;;;4153648;28;20033;-73
2021/10/23 02:38:02;;;;;;;11.32;6.78;;;10.10;99.90;;;;;;4153734;28;20501;-73
2021/10/23 02:40:05;;;;;;;10.18;5.78;;;10.00;99.90;;;;;;4150600;28;20776;-72
2021/10/23 02:42:06;;;;;;;;;;;10.00;99.90;;;;;;4155648;28;20103;-72
2021/10/23 02:44:06;;;;;;;8.65;6.13;;;10.00;99.90;;;;;;4154634;28;19913;-72
2021/10/23 02:46:07;;;;;;;11.07;6.20;;;10.00;99.90;;;;;;4154282;28;20033;-72
2021/10/23 02:48:07;;;;;;;13.40;7.18;;;10.00;99.90;;;;;;4153326;28;20021;-72
2021/10/23 02:50:08;;;;;;;8.38;6.10;;;10.00;99.90;;;;;;4150264;28;20045;-72
2021/10/23 02:52:10;;;;;;;9.23;6.07;;;10.00;99.90;;;;;;4152750;28;20041;-72
2021/10/23 02:54:11;;;;;;;12.80;6.43;;;10.00;99.90;;;;;;4154490;28;20108;-72
2021/10/23 02:56:12;;;;;;;7.82;5.90;;;10.00;99.90;;;;;;4152527;28;20049;-72
2021/10/23 02:58:12;;;;;;;10.60;7.00;;;10.10;99.90;;;;;;4150634;28;20713;-72
2021/10/23 03:00:13;;;;;;;9.13;6.25;;;10.10;99.90;;;;;;4152804;28;20587;-72
2021/10/23 03:02:14;;;;;;;12.77;6.68;;;10.10;99.90;;;;;;4153951;28;20033;-72
2021/10/23 03:04:14;;;;;;;9.43;6.07;;;10.10;99.90;;;;;;4153208;28;20060;-72
2021/10/23 03:06:17;;;;;;;8.48;6.10;;;10.10;99.90;;;;;;4152967;28;20029;-72
2021/10/23 03:08:18;;;;;;;9.93;7.07;;;10.10;99.90;;;;;;4151195;28;20225;-73
2021/10/23 03:10:19;;;;;;;11.63;6.60;;;10.10;99.90;;;;;;4151744;28;20165;-72
2021/10/23 03:12:19;;;;;;;10.30;6.68;;;10.10;99.90;;;;;;4154687;28;20041;-72
2021/10/23 03:14:20;;;;;;;10.75;6.82;;;10.10;99.90;;;;;;4151658;28;20116;-72
2021/10/23 03:16:20;;;;;;;11.60;6.85;;;10.20;99.90;;;;;;4153182;28;20083;-72
2021/10/23 03:18:21;;;;;;;9.38;6.68;;;10.10;99.90;;;;;;4152995;28;20053;-72
2021/10/23 03:20:22;;;;;;;12.02;6.93;;;10.10;99.90;;;;;;4152432;28;20111;-72
2021/10/23 03:22:23;;;;;;;13.45;7.15;;;10.20;99.90;;;;;;4154507;28;20509;-72
2021/10/23 03:24:24;;;;;;;13.75;7.32;;;10.20;99.90;;;;;;4153933;28;20099;-72
2021/10/23 03:26:24;;;;;;;9.90;6.95;;;10.10;99.90;;;;;;4150423;28;20034;-72
2021/10/23 03:28:25;;;;;;;10.45;6.97;;;10.20;99.90;;;;;;4151245;28;20708;-72
2021/10/23 03:30:26;;;;;;;11.15;7.90;;;10.20;99.90;;;;;;4154614;28;20030;-72
2021/10/23 03:32:26;;;;;;;11.75;6.63;;;10.20;99.90;;;;;;4153956;28;20056;-72
2021/10/23 03:34:27;;;;;;;11.20;6.57;;;10.10;99.90;;;;;;4153626;28;20034;-72
2021/10/23 03:36:28;;;;;;;10.32;7.13;;;10.10;99.90;;;;;;4153759;28;20065;-72
2021/10/23 03:38:28;;;;;;;7.70;5.53;;;10.10;99.90;;;;;;4151310;28;20148;-72
2021/10/23 03:40:29;;;;;;;7.80;5.97;;;10.10;99.90;;;;;;4154583;28;20045;-72
2021/10/23 03:42:30;;;;;;;9.52;5.80;;;10.10;99.90;;;;;;4154571;28;20695;-72
2021/10/23 03:44:31;;;;;;;8.63;6.13;;;10.10;99.90;;;;;;4154690;28;20490;-72
2021/10/23 03:46:31;;;;;;;9.25;6.30;;;10.00;99.90;;;;;;4152524;28;20455;-73
2021/10/23 03:48:32;;;;;;;9.43;6.70;;;10.00;99.90;;;;;;4153923;28;20163;-72
2021/10/23 03:50:33;;;;;;;9.52;6.57;;;10.00;99.90;;;;;;4153929;28;20033;-73
2021/10/23 03:52:34;;;;;;;10.68;6.82;;;10.00;99.90;;;;;;4153052;28;20753;-72
2021/10/23 03:54:34;;;;;;;12.85;7.30;;;10.00;99.90;;;;;;4154285;28;20132;-72
2021/10/23 03:56:35;;;;;;;11.00;8.02;;;9.90;99.90;;;;;;4152878;28;20056;-72
2021/10/23 03:58:36;;;;;;;11.05;7.57;;;9.90;99.90;;;;;;4153234;28;20046;-72
2021/10/23 04:00:37;;;;;;;11.80;7.72;;;9.90;99.90;;;;;;4151622;28;20045;-72
2021/10/23 04:02:38;;;;;;;12.38;7.72;;;9.90;99.90;;;;;;4154218;28;20036;-72
2021/10/23 04:04:38;;;;;;;13.23;8.45;;;9.80;99.90;;;;;;4154008;28;20025;-72
2021/10/23 04:06:39;;;;;;;15.35;8.55;;;9.80;99.90;;;;;;4154319;28;20030;-72
2021/10/23 04:08:40;;;;;;;11.70;7.95;;;9.70;99.90;;;;;;4152509;28;20125;-72
2021/10/23 04:10:41;;;;;;;11.85;8.43;;;9.70;99.90;;;;;;4150597;28;20041;-72
2021/10/23 04:12:41;;;;;;;12.25;8.23;;;9.70;99.90;;;;;;4154107;28;20041;-72
2021/10/23 04:14:42;;;;;;;12.02;8.18;;;9.70;99.90;;;;;;4154632;28;20045;-72
2021/10/23 04:16:42;;;;;;;13.07;8.45;;;9.70;99.90;;;;;;4153553;28;20047;-72
2021/10/23 04:18:43;;;;;;;12.55;8.25;;;9.60;99.90;;;;;;4156310;28;20048;-72
2021/10/23 04:20:44;;;;;;;13.45;8.20;;;9.70;99.90;;;;;;4157172;28;20034;-72
2021/10/23 04:22:45;;;;;;;11.43;8.50;;;9.60;99.90;;;;;;4157567;28;20026;-72
2021/10/23 04:24:47;;;;;;;11.52;7.88;;;9.70;99.90;;;;;;4155988;28;20235;-72
2021/10/23 04:26:49;;;;;;;11.17;8.13;;;9.60;99.90;;;;;;4157057;28;20136;-72
2021/10/23 04:28:49;;;;;;;12.55;7.72;;;9.60;99.90;;;;;;4156627;28;20107;-72
2021/10/23 04:30:51;;;;;;;12.75;8.80;;;9.60;99.90;;;;;;4156858;28;20045;-72
2021/10/23 04:32:51;;;;;;;13.68;8.18;;;9.60;99.90;;;;;;4155258;28;20030;-72
2021/10/23 04:34:52;;;;;;;13.73;9.43;;;9.60;99.90;;;;;;4155475;28;20053;-72
2021/10/23 04:36:52;;;;;;;15.13;9.85;;;9.60;99.90;;;;;;4156620;28;20029;-72
2021/10/23 04:38:53;;;;;;;13.43;9.23;;;9.60;99.90;;;;;;4152703;28;21430;-72
2021/10/23 04:40:54;;;;;;;17.67;9.75;;;9.60;99.90;;;;;;4152486;28;20108;-72
2021/10/23 04:42:54;;;;;;;16.02;10.63;;;9.60;99.90;;;;;;4156563;28;20033;-72
2021/10/23 04:44:55;;;;;;;13.05;9.48;;;9.50;99.90;;;;;;4156979;28;20600;-72
2021/10/23 04:46:55;;;;;;;14.27;9.55;;;9.60;99.90;;;;;;4156837;28;20045;-72
2021/10/23 04:48:56;;;;;;;14.07;9.52;;;9.50;99.90;;;;;;4156815;28;20401;-72
2021/10/23 04:50:57;;;;;;;17.45;9.50;;;9.50;99.90;;;;;;4154202;28;20045;-72
2021/10/23 04:52:57;;;;;;;16.20;9.57;;;9.50;99.90;;;;;;4155066;28;20389;-72
2021/10/23 04:54:58;;;;;;;15.88;10.18;;;9.50;99.90;;;;;;4155602;28;20886;-72
2021/10/23 04:56:58;;;;;;;14.75;10.05;;;9.50;99.90;;;;;;4154401;28;20528;-72
2021/10/23 04:58:59;;;;;;;14.88;9.82;;;9.50;99.90;;;;;;4156750;28;20072;-72
2021/10/23 05:01:00;;;;;;;14.48;8.98;;;9.50;99.90;;;;;;4154103;28;20095;-72
2021/10/23 05:03:00;;;;;;;14.32;8.57;;;9.50;99.90;;;;;;4156774;28;20048;-72
2021/10/23 05:05:01;;;;;;;13.30;8.45;;;9.50;99.90;;;;;;4157139;28;20049;-72
2021/10/23 05:07:02;;;;;;;13.75;8.63;;;9.50;99.90;;;;;;4156282;28;20033;-72
2021/10/23 05:09:03;;;;;;;13.35;8.95;;;9.50;99.90;;;;;;4152057;28;20084;-72
2021/10/23 05:11:03;;;;;;;12.50;8.98;;;9.50;99.90;;;;;;4156205;28;20038;-72
2021/10/23 05:13:04;;;;;;;15.32;9.00;;;9.50;99.90;;;;;;4156323;28;20442;-73
2021/10/23 05:15:06;;;;;;;17.13;9.95;;;9.50;99.90;;;;;;4156264;28;20032;-72
2021/10/23 05:17:06;;;;;;;16.67;11.05;;;9.50;99.90;;;;;;4156492;28;20041;-72
2021/10/23 05:19:07;;;;;;;14.20;9.93;;;9.50;99.90;;;;;;4156553;28;20037;-72
2021/10/23 05:21:08;;;;;;;14.43;9.63;;;9.50;99.90;;;;;;4153101;28;20037;-72
2021/10/23 05:23:08;;;;;;;10.65;8.02;;;9.50;99.90;;;;;;4145366;28;20029;-72
2021/10/23 05:25:09;;;;;;;14.10;9.43;;;9.50;99.90;;;;;;4154908;28;20073;-72
2021/10/23 05:27:09;;;;;;;14.18;9.40;;;9.50;99.90;;;;;;4154104;28;20052;-72
2021/10/23 05:29:10;;;;;;;13.43;9.07;;;9.50;99.90;;;;;;4155414;28;20061;-72
2021/10/23 05:31:11;;;;;;;14.52;8.98;;;9.50;99.90;;;;;;4152241;28;20068;-72
2021/10/23 05:33:11;;;;;;;13.85;8.70;;;9.50;99.90;;;;;;4154479;28;20052;-73
2021/10/23 05:35:12;;;;;;;15.23;9.32;;;9.50;99.90;;;;;;4155350;28;20541;-72
2021/10/23 05:37:12;;;;;;;20.05;12.00;;;9.50;99.90;;;;;;4153113;28;20025;-72
2021/10/23 05:39:13;;;;;;;17.67;12.38;;;9.50;99.90;;;;;;4156764;28;20033;-72
2021/10/23 05:41:14;;;;;;;18.55;12.40;;;9.50;99.90;;;;;;4153432;28;20036;-72
2021/10/23 05:43:14;;;;;;;17.45;10.98;;;9.50;99.90;;;;;;4155769;28;20029;-72
2021/10/23 05:45:15;;;;;;;17.65;12.18;;;9.50;99.90;;;;;;4154912;28;20041;-72
2021/10/23 05:47:16;;;;;;;15.98;11.35;;;9.50;99.90;;;;;;4153599;28;20406;-72
2021/10/23 05:49:16;;;;;;;15.90;11.52;;;9.50;99.90;;;;;;4154387;28;20091;-72
2021/10/23 05:51:17;;;;;;;16.50;11.25;;;9.50;99.90;;;;;;4154884;28;20052;-72
2021/10/23 05:53:17;;;;;;;17.80;12.00;;;9.60;99.90;;;;;;4155477;28;20026;-72
2021/10/23 05:55:18;;;;;;;17.48;12.15;;;9.60;99.90;;;;;;4155774;28;20030;-72
2021/10/23 05:57:19;;;;;;;17.98;12.52;;;9.60;99.90;;;;;;4153266;28;20057;-73
2021/10/23 05:59:22;;;;;;;14.35;10.70;;;9.50;99.90;;;;;;4151792;28;20139;-72
2021/10/23 06:01:23;;;;;;;17.00;12.25;;;9.60;99.90;;;;;;4153155;28;20032;-72
2021/10/23 06:03:25;;;;;;;19.23;11.70;;;9.60;99.90;;;;;;4153586;28;20025;-72
2021/10/23 06:05:26;;;;;;;19.27;11.73;;;9.60;99.90;;;;;;4155960;28;20037;-72
2021/10/23 06:07:30;;;;;;;19.33;13.73;;;9.60;99.90;;;;;;4153494;28;20683;-72
2021/10/23 06:09:31;;;;;;;17.95;12.73;;;9.60;99.90;;;;;;4154853;28;20052;-73
2021/10/23 06:11:32;;;;;;;17.00;12.35;;;9.60;99.90;;;;;;4152485;28;20992;-73
2021/10/23 06:13:34;;;;;;;19.80;14.20;;;9.60;99.90;;;;;;4155173;28;20048;-72
2021/10/23 06:15:34;;;;;;;21.23;15.20;;;9.60;99.90;;;;;;4154822;28;20115;-72
2021/10/23 06:17:35;;;;;;;19.55;13.77;;;9.60;99.90;;;;;;4153078;28;20106;-72
2021/10/23 06:19:37;;;;;;;20.92;14.55;;;9.70;99.90;;;;;;4154097;28;20492;-72
2021/10/23 06:21:38;;;;;;;18.88;13.70;;;9.60;99.90;;;;;;4153695;28;20026;-72
2021/10/23 06:23:39;;;;;;;21.67;14.27;;;9.60;99.90;;;;;;4153596;28;20108;-72
2021/10/23 06:25:39;;;;;;;23.88;16.52;;;9.60;99.90;;;;;;4154702;28;20037;-72
2021/10/23 06:27:40;;;;;;;19.50;13.32;;;9.60;99.90;;;;;;4151767;28;20021;-72
2021/10/23 06:29:40;;;;;;;20.48;13.27;;;9.60;99.90;;;;;;4155819;28;20024;-72
2021/10/23 06:31:41;;;;;;;23.58;15.45;;;9.60;99.90;;;;;;4150382;28;20135;-72
2021/10/23 06:33:41;;;;;;;22.20;15.05;;;9.60;99.90;;;;;;4153657;28;20104;-72
2021/10/23 06:35:42;;;;;;;19.80;13.85;;;9.60;99.90;;;;;;4153552;28;20788;-72
2021/10/23 06:37:44;;;;;;;25.15;14.63;;;9.60;99.90;;;;;;4154457;28;20041;-72
2021/10/23 06:39:45;;;;;;;23.17;15.43;;;9.60;99.90;;;;;;4153070;28;20776;-72
2021/10/23 06:41:46;;;;;;;24.75;15.25;;;9.60;99.90;;;;;;4154144;28;20268;-72
2021/10/23 06:43:46;;;;;;;19.60;13.48;;;9.70;99.90;;;;;;4150311;28;20038;-72
2021/10/23 06:45:48;;;;;;;23.42;15.60;;;9.70;99.90;;;;;;4154720;28;20033;-72
2021/10/23 06:47:49;;;;;;;21.42;14.70;;;9.70;99.90;;;;;;4150578;28;20017;-73
2021/10/23 06:49:51;;;;;;;19.35;13.48;;;9.70;99.90;;;;;;4153624;28;20432;-72
2021/10/23 06:51:51;;;;;;;25.63;16.27;;;9.70;99.90;;;;;;4151067;28;20033;-72
2021/10/23 06:53:55;;;;;;;23.10;14.25;;;9.70;99.90;;;;;;4155134;28;20036;-72
2021/10/23 06:55:55;;;;;;;30.20;17.83;;;9.70;99.90;;;;;;4151639;28;20045;-72
2021/10/23 06:57:56;;;;;;;24.77;16.77;;;9.60;99.90;;;;;;4153493;28;20045;-72
2021/10/23 06:59:57;;;;;;;22.40;15.52;;;9.70;99.90;;;;;;4153668;28;20045;-72
2021/10/23 07:01:58;;;;;;;24.02;15.68;;;9.60;99.90;;;;;;4153576;28;20060;-72
2021/10/23 07:03:58;;;;;;;23.77;15.98;;;9.60;99.90;;;;;;4154913;28;20025;-72
2021/10/23 07:05:59;;;;;;;26.02;16.02;;;9.60;99.90;;;;;;4152251;28;20034;-72
2021/10/23 07:08:00;;;;;;;23.27;15.30;;;9.60;99.90;;;;;;4154297;28;20025;-72
2021/10/23 07:10:00;;;;;;;26.67;16.65;;;9.70;99.90;;;;;;4154269;28;20049;-72
2021/10/23 07:12:01;;;;;;;24.35;15.85;;;9.70;99.90;;;;;;4150903;28;20039;-72
2021/10/23 07:14:02;;;;;;;25.40;16.38;;;9.70;99.90;;;;;;4154137;28;20029;-72
2021/10/23 07:16:03;;;;;;;27.45;16.02;;;9.70;99.90;;;;;;4157939;28;20041;-72
2021/10/23 07:18:04;;;;;;;26.23;16.65;;;9.80;99.90;;;;;;4154527;28;20042;-72
2021/10/23 07:20:05;;;;;;;27.85;17.08;;;9.80;99.90;;;;;;4154785;28;20202;-72
2021/10/23 07:22:07;;;;;;;25.70;16.25;;;9.80;99.90;;;;;;4154660;28;20029;-72
2021/10/23 07:24:07;;;;;;;26.20;17.45;;;9.80;99.90;;;;;;4154538;28;20056;-72
2021/10/23 07:26:08;;;;;;;23.05;15.10;;;9.80;99.90;;;;;;4154870;28;20026;-72
2021/10/23 07:28:08;;;;;;;28.23;18.70;;;9.80;99.90;;;;;;4154795;28;20389;-72
2021/10/23 07:30:10;;;;;;;25.85;16.08;;;9.90;99.90;;;;;;4153029;28;20022;-72
2021/10/23 07:32:11;;;;;;;24.00;16.40;;;9.90;99.90;;;;;;4153372;28;20040;-72
2021/10/23 07:34:12;;;;;;;22.40;15.07;;;9.90;99.90;;;;;;4152520;28;20038;-72
2021/10/23 07:36:17;;;;;;;24.73;15.25;;;10.00;99.90;;;;;;4156105;28;20522;-72
2021/10/23 07:38:18;;;;;;;21.58;14.27;;;10.00;99.90;;;;;;4153044;28;20479;-72
2021/10/23 07:40:18;;;;;;;26.63;16.88;;;10.00;99.90;;;;;;4154187;28;20108;-69
2021/10/23 07:42:19;;;;;;;26.45;17.80;;;10.10;99.90;;;;;;4154642;28;20127;-69
2021/10/23 07:44:19;;;;;;;22.10;15.23;;;10.10;99.90;;;;;;4156167;28;20033;-69
2021/10/23 07:46:20;;;;;;;24.92;17.27;;;10.10;99.90;;;;;;4154269;28;20050;-70
2021/10/23 07:48:21;;;;;;;24.42;16.10;;;10.10;99.90;;;;;;4151069;28;20042;-70
2021/10/23 07:50:21;;;;;;;26.45;17.70;;;10.10;99.90;;;;;;4154756;28;20073;-70
2021/10/23 07:52:22;;;;;;;26.60;16.17;;;10.10;99.90;;;;;;4156381;28;20044;-70
2021/10/23 07:54:23;;;;;;;24.88;16.13;;;10.20;99.90;;;;;;4157434;28;20033;-70
2021/10/23 07:56:23;;;;;;;26.42;17.13;;;10.20;99.90;;;;;;4156825;28;20112;-70
2021/10/23 07:58:25;;;;;;;27.23;17.38;;;10.20;99.90;;;;;;4157569;28;20367;-70
2021/10/23 08:00:26;;;;;;;25.55;16.08;;;10.20;99.90;;;;;;4155310;28;20030;-70
2021/10/23 08:02:27;;;;;;;30.75;19.48;;;10.30;99.90;;;;;;4156632;28;20041;-70
2021/10/23 08:04:28;;;;;;;35.35;19.17;;;10.20;99.90;;;;;;4157695;28;20034;-69
2021/10/23 08:06:29;;;;;;;27.88;18.70;;;10.20;99.90;;;;;;4156486;28;20029;-69
2021/10/23 08:08:30;;;;;;;46.78;23.27;;;10.20;99.90;;;;;;4157910;28;20049;-69
2021/10/23 08:10:33;;;;;;;32.22;19.40;;;10.20;99.90;;;;;;4155469;28;20753;-69
2021/10/23 08:12:33;;;;;;;31.55;18.80;;;10.20;99.90;;;;;;4155058;28;20121;-69
2021/10/23 08:14:35;;;;;;;30.10;18.00;;;10.30;99.90;;;;;;4155551;28;20041;-69
2021/10/23 08:16:36;;;;;;;28.00;17.55;;;10.30;99.90;;;;;;4158790;28;20108;-69
2021/10/23 08:18:36;;;;;;;26.17;16.15;;;10.30;99.90;;;;;;4157117;28;20111;-69
2021/10/23 08:20:37;;;;;;;25.67;16.70;;;10.40;99.90;;;;;;4157486;28;20128;-69
2021/10/23 08:22:38;;;;;;;31.60;18.50;;;10.40;99.90;;;;;;4158093;28;22748;-69
2021/10/23 08:24:40;;;;;;;37.25;22.75;;;10.40;99.90;;;;;;4157555;28;20025;-70
2021/10/23 08:26:42;;;;;;;29.08;18.25;;;10.40;99.90;;;;;;4157604;28;20045;-69
2021/10/23 08:28:43;;;;;;;30.38;17.92;;;10.40;99.90;;;;;;4156812;28;20037;-70
2021/10/23 08:30:43;;;;;;;37.05;21.60;;;10.50;99.90;;;;;;4156116;28;20133;-69
2021/10/23 08:32:46;;;;;;;39.80;22.00;;;10.50;99.90;;;;;;4155671;28;20041;-69
2021/10/23 08:34:47;;;;;;;34.65;19.80;;;10.60;99.90;;;;;;4157144;28;20032;-69
2021/10/23 08:36:48;;;;;;;34.92;19.92;;;10.50;99.90;;;;;;4155592;28;20065;-69
2021/10/23 08:38:49;;;;;;;40.83;23.95;;;10.50;99.90;;;;;;4139725;28;20034;-69
2021/10/23 08:40:53;;;;;;;36.53;20.27;;;10.50;99.90;;;;;;4156071;28;20057;-69
2021/10/23 08:42:54;;;;;;;39.63;21.58;;;10.50;99.90;;;;;;4155708;28;20036;-69
2021/10/23 08:44:58;;;;;;;35.05;20.73;;;10.50;99.90;;;;;;4157202;28;20112;-69
2021/10/23 08:46:58;;;;;;;45.17;24.20;;;10.50;99.90;;;;;;4155151;28;20398;-70
2021/10/23 08:49:00;;;;;;;37.65;21.15;;;10.50;99.90;;;;;;4157380;28;20060;-69
2021/10/23 08:51:02;;;;;;;33.85;20.02;;;10.40;99.90;;;;;;4156951;28;20026;-69
2021/10/23 08:53:03;;;;;;;33.30;19.40;;;10.40;99.90;;;;;;4153380;28;20045;-69
2021/10/23 08:55:05;;;;;;;34.08;19.83;;;10.50;99.90;;;;;;4156272;28;20265;-70
2021/10/23 08:57:06;;;;;;;36.17;20.92;;;10.50;99.90;;;;;;4156557;28;20046;-70
2021/10/23 08:59:07;;;;;;;43.70;23.25;;;10.60;99.90;;;;;;4153162;28;20049;-70
2021/10/23 09:01:13;;;;;;;36.47;21.48;;;10.60;99.90;;;;;;4155660;28;20457;-70
2021/10/23 09:03:16;;;;;;;39.00;21.63;;;10.70;99.90;;;;;;4153645;28;20037;-70
2021/10/23 09:05:17;;;;;;;35.13;21.17;;;10.60;99.90;;;;;;4157250;28;20027;-70
2021/10/23 09:07:18;;;;;;;35.85;20.45;;;10.70;99.90;;;;;;4155363;28;20116;-70
2021/10/23 09:09:19;;;;;;;36.85;21.35;;;10.70;99.90;;;;;;4164254;28;20033;-70
2021/10/23 09:11:39;;;;;;;30.67;19.08;;;10.80;99.90;;;;;;4156587;28;20041;-69
2021/10/23 09:13:40;;;;;;;38.17;22.92;;;10.80;99.90;;;;;;4156555;28;20083;-70
2021/10/23 09:15:42;;;;;;;34.92;20.85;;;10.90;99.90;;;;;;4156984;28;20057;-69
2021/10/23 09:17:50;;;;;;;34.83;21.13;;;10.90;99.90;;;;;;4155452;28;20792;-69
2021/10/23 09:19:54;;;;;;;42.08;24.23;;;11.00;99.90;;;;;;4155067;28;20022;-69
2021/10/23 09:21:54;;;;;;;37.80;22.85;;;11.00;99.90;;;;;;4156722;28;20061;-69
2021/10/23 09:23:55;;;;;;;39.35;23.13;;;11.00;99.90;;;;;;4156682;28;20044;-69
2021/10/23 09:25:56;;;;;;;35.80;21.30;;;11.00;99.90;;;;;;4155152;28;20055;-69
2021/10/23 09:28:02;;;;;;;40.72;25.33;;;11.10;99.90;;;;;;4155426;28;20049;-69
2021/10/23 09:30:11;;;;;;;35.25;23.00;;;11.10;99.90;;;;;;4154506;28;20030;-69
2021/10/23 09:32:12;;;;;;;33.55;21.45;;;11.10;99.90;;;;;;4155295;28;20026;-69
2021/10/23 09:34:17;;;;;;;34.03;22.05;;;11.20;99.90;;;;;;4155576;28;20029;-69
2021/10/23 09:36:22;;;;;;;36.55;22.92;;;11.20;99.90;;;;;;4155404;28;20451;-69
2021/10/23 09:38:24;;;;;;;38.25;24.50;;;11.20;99.90;;;;;;4151307;28;20037;-69
2021/10/23 09:40:27;;;;;;;36.92;23.25;;;11.30;99.90;;;;;;4151961;28;20033;-69
2021/10/23 09:42:27;;;;;;;35.10;22.15;;;11.30;99.90;;;;;;4155423;28;20033;-69
2021/10/23 09:44:28;;;;;;;32.55;20.88;;;11.40;99.90;;;;;;4153522;28;20048;-69
2021/10/23 09:46:30;;;;;;;31.90;21.13;;;11.40;99.90;;;;;;4155523;28;20077;-69
2021/10/23 09:48:40;;;;;;;31.15;21.00;;;11.40;99.90;;;;;;4152095;28;20556;-70
2021/10/23 09:50:40;;;;;;;32.45;21.17;;;11.50;99.90;;;;;;4152790;28;20021;-69
2021/10/23 09:53:07;;;;;;;33.55;22.55;;;11.50;99.90;;;;;;4153254;28;20378;-69
2021/10/23 09:55:09;;;;;;;35.85;22.02;;;11.50;99.90;;;;;;4153980;28;20037;-69
2021/10/23 09:57:11;;;;;;;31.73;20.50;;;11.50;99.90;;;;;;4152738;28;20056;-69
2021/10/23 09:59:11;;;;;;;34.15;22.23;;;11.50;99.90;;;;;;4155650;28;20487;-69
2021/10/23 10:01:12;;;;;;;32.10;21.40;;;11.60;99.90;;;;;;4151249;28;20072;-69
2021/10/23 10:03:13;;;;;;;33.80;21.08;;;11.60;99.90;;;;;;4155594;28;20029;-70
2021/10/23 10:05:14;;;;;;;31.30;19.60;;;11.60;99.90;;;;;;4154937;28;20495;-69
2021/10/23 10:07:15;;;;;;;27.25;19.02;;;11.70;99.90;;;;;;4155287;28;20022;-69
2021/10/23 10:09:19;;;;;;;29.20;19.23;;;11.70;99.90;;;;;;4151936;28;20087;-69
2021/10/23 10:11:20;;;;;;;29.13;19.60;;;11.70;99.90;;;;;;4179651;28;20029;-70
2021/10/23 10:13:25;;;;;;;30.80;22.58;;;11.70;99.90;;;;;;4155184;28;20029;-70
2021/10/23 10:15:29;;;;;;;32.35;21.58;;;11.70;99.90;;;;;;4161648;28;20541;-70
2021/10/23 10:17:30;;;;;;;31.25;21.00;;;11.70;99.90;;;;;;4153651;28;20029;-70
2021/10/23 10:19:31;;;;;;;33.00;20.83;;;11.80;99.90;;;;;;4152892;28;20021;-70
2021/10/23 10:21:37;;;;;;;37.70;22.98;;;11.80;99.90;;;;;;4151370;28;20114;-69
2021/10/23 10:23:40;;;;;;;29.80;20.10;;;11.80;99.90;;;;;;4154233;28;20127;-69